Terminal Aerodrome Forecast
Issued by NWS

Home | Current Version | Previous Version | Text Only | Print | Product List | Glossary On
Versions: 1 2 3 4 5 6 7 8 9 10 11 12 13 14 15 16 17 18
000
FTUS42 KTAE 062327
TAFECP
TAF
KECP 062327Z 0700/0724 00000KT P6SM FEW250
     FM071400 31004KT P6SM SCT030
     FM071700 21006KT P6SM VCTS SCT040CB
     FM072100 22008KT P6SM SCT100=

USA.gov is the U.S. government's official web portal to all federal, state and local government web resources and services.